createdAt,value
2018-04-27T00:00:45.016Z,7.80
2018-04-27T00:05:48.284Z,7.50
2018-04-27T00:10:51.551Z,9.10
2018-04-27T00:15:54.783Z,9.90
2018-04-27T00:20:58.058Z,8.30
2018-04-27T00:26:01.300Z,7.60
2018-04-27T00:31:05.324Z,7.80
2018-04-27T00:36:08.572Z,7.70
2018-04-27T00:41:11.839Z,9.40
2018-04-27T00:46:15.091Z,10.60
2018-04-27T00:51:18.331Z,8.60
2018-04-27T00:56:21.601Z,7.70
2018-04-27T01:01:24.841Z,8.50
2018-04-27T01:06:28.154Z,10.40
2018-04-27T01:11:32.096Z,10.10
2018-04-27T01:16:35.340Z,9.90
2018-04-27T01:21:38.588Z,8.70
2018-04-27T01:26:41.868Z,7.60
2018-04-27T01:31:45.120Z,7.60
2018-04-27T01:36:48.364Z,7.50
2018-04-27T01:41:51.613Z,7.40
2018-04-27T01:46:56.531Z,7.40
2018-04-27T01:51:59.805Z,7.30
2018-04-27T01:57:03.062Z,7.30
2018-04-27T02:02:06.328Z,7.10
2018-04-27T02:07:09.650Z,7.20
2018-04-27T02:12:12.911Z,7.00
2018-04-27T02:17:16.176Z,6.90
2018-04-27T02:22:19.424Z,7.10
2018-04-27T02:27:22.677Z,7.00
2018-04-27T02:32:25.935Z,7.20
2018-04-27T02:37:29.187Z,6.80
2018-04-27T02:42:33.234Z,7.10
2018-04-27T02:47:36.477Z,7.10
2018-04-27T02:52:40.620Z,7.00
2018-04-27T02:57:43.903Z,7.30
2018-04-27T03:02:47.154Z,7.20
2018-04-27T03:07:50.433Z,6.90
2018-04-27T03:12:53.680Z,6.70
2018-04-27T03:17:56.956Z,6.70
2018-04-27T03:23:00.208Z,6.70
2018-04-27T03:28:03.463Z,6.80
2018-04-27T03:33:06.722Z,7.30
2018-04-27T03:38:09.971Z,6.70
2018-04-27T03:43:13.271Z,7.30
2018-04-27T03:48:16.527Z,6.60
2018-04-27T03:53:19.764Z,6.50
2018-04-27T03:58:23.072Z,6.30
2018-04-27T04:03:38.249Z,7.40
2018-04-27T04:08:41.551Z,6.50
2018-04-27T04:13:44.831Z,6.60
2018-04-27T04:18:48.083Z,6.50
2018-04-27T04:23:51.330Z,6.40
2018-04-27T04:28:54.597Z,6.40
2018-04-27T04:33:57.872Z,6.40
2018-04-27T04:39:02.736Z,6.40
2018-04-27T04:44:06.768Z,6.50
2018-04-27T04:49:10.027Z,6.50
2018-04-27T04:54:13.285Z,6.80
2018-04-27T04:59:16.768Z,7.00
2018-04-27T05:04:20.032Z,7.50
2018-04-27T05:09:23.305Z,7.80
2018-04-27T05:14:26.551Z,8.00
2018-04-27T05:19:29.799Z,8.40
2018-04-27T05:24:33.047Z,8.40
2018-04-27T05:29:36.357Z,8.60
2018-04-27T05:34:40.379Z,9.00
2018-04-27T05:39:43.634Z,9.20
2018-04-27T05:44:46.888Z,9.10
2018-04-27T05:49:50.908Z,8.90
2018-04-27T05:54:55.014Z,9.10
2018-04-27T05:59:58.247Z,9.10
2018-04-27T06:05:01.514Z,9.60
2018-04-27T06:10:04.918Z,9.90
2018-04-27T06:15:08.168Z,10.90
2018-04-27T06:20:11.432Z,10.50
2018-04-27T06:25:14.727Z,11.00
2018-04-27T06:30:17.986Z,10.90
2018-04-27T06:35:22.016Z,12.10
2018-04-27T06:40:25.282Z,12.10
2018-04-27T06:45:28.564Z,12.40
2018-04-27T06:50:31.833Z,12.20
2018-04-27T06:55:35.101Z,11.80
2018-04-27T07:00:38.367Z,11.70
2018-04-27T07:05:42.609Z,12.20
2018-04-27T07:10:45.983Z,12.90
2018-04-27T07:15:49.248Z,13.20
2018-04-27T07:20:52.532Z,13.30
2018-04-27T07:25:55.980Z,14.40
2018-04-27T07:30:59.169Z,14.90
2018-04-27T07:36:02.440Z,15.80
2018-04-27T07:41:06.475Z,13.30
2018-04-27T07:46:09.726Z,14.60
2018-04-27T07:51:13.011Z,15.00
2018-04-27T07:56:16.264Z,14.80
2018-04-27T08:01:19.532Z,15.20
2018-04-27T08:06:22.817Z,16.10
2018-04-27T08:11:26.110Z,16.30
2018-04-27T08:16:29.323Z,16.20
2018-04-27T08:21:33.351Z,16.20
2018-04-27T08:26:36.604Z,16.10
2018-04-27T08:31:40.624Z,16.70
2018-04-27T08:36:43.888Z,16.60
2018-04-27T08:41:47.136Z,16.00
2018-04-27T08:46:50.407Z,16.80
2018-04-27T08:51:54.414Z,16.60
2018-04-27T08:56:57.672Z,16.60
2018-04-27T09:02:00.912Z,18.10
2018-04-27T09:07:04.167Z,17.20
2018-04-27T09:12:07.427Z,17.40
2018-04-27T09:17:10.752Z,17.40
2018-04-27T09:22:14.009Z,18.50
2018-04-27T09:27:17.258Z,18.60
2018-04-27T09:32:20.514Z,18.80
2018-04-27T09:37:23.758Z,19.70
2018-04-27T09:42:27.032Z,19.90
2018-04-27T09:47:31.600Z,18.50
2018-04-27T09:52:34.875Z,18.40
2018-04-27T09:57:38.129Z,17.50
2018-04-27T10:02:41.381Z,17.00
2018-04-27T10:07:44.639Z,18.60
2018-04-27T10:12:47.938Z,18.80
2018-04-27T10:17:51.202Z,20.20
2018-04-27T10:22:55.215Z,18.10
2018-04-27T10:27:58.519Z,18.00
2018-04-27T10:33:01.752Z,19.20
2018-04-27T10:38:05.788Z,21.10
2018-04-27T10:43:09.057Z,19.70
2018-04-27T10:48:12.279Z,21.00
2018-04-27T10:53:16.283Z,20.60
2018-04-27T10:58:19.531Z,22.30
2018-04-27T11:03:23.626Z,18.60
2018-04-27T11:08:26.839Z,18.40
2018-04-27T11:13:30.178Z,19.90
2018-04-27T11:18:33.443Z,21.20
2018-04-27T11:23:36.695Z,22.80
2018-04-27T11:28:39.973Z,21.00
2018-04-27T11:33:43.208Z,21.40
2018-04-27T11:38:46.472Z,23.20
2018-04-27T11:43:49.731Z,23.80
2018-04-27T11:48:52.988Z,22.30
2018-04-27T11:53:56.352Z,22.90
2018-04-27T11:58:59.666Z,22.40
2018-04-27T12:04:03.679Z,22.50
2018-04-27T12:09:06.967Z,22.40
2018-04-27T12:14:10.295Z,22.40
2018-04-27T12:19:13.551Z,21.50
2018-04-27T12:24:16.882Z,21.20
2018-04-27T12:29:20.831Z,22.50
2018-04-27T12:34:24.862Z,22.10
2018-04-27T12:39:28.885Z,20.70
2018-04-27T12:44:32.149Z,20.60
2018-04-27T12:49:35.402Z,23.10
2018-04-27T12:54:39.441Z,21.50
2018-04-27T12:59:42.700Z,21.40
2018-04-27T13:04:45.955Z,22.60
2018-04-27T13:09:49.222Z,22.90
2018-04-27T13:14:52.528Z,22.00
2018-04-27T13:19:56.575Z,22.20
2018-04-27T13:24:59.825Z,21.40
2018-04-27T13:30:03.162Z,21.20
2018-04-27T13:35:07.111Z,21.10
2018-04-27T13:40:10.369Z,21.00
2018-04-27T13:45:13.623Z,23.70
2018-04-27T13:50:16.879Z,24.00
2018-04-27T13:55:20.143Z,23.70
2018-04-27T14:00:23.401Z,23.70
2018-04-27T14:05:26.652Z,23.00
2018-04-27T14:10:29.891Z,24.70
2018-04-27T14:15:33.700Z,24.30
2018-04-27T14:20:37.715Z,22.90
2018-04-27T14:25:40.978Z,22.90
2018-04-27T14:30:44.237Z,22.50
2018-04-27T14:35:48.267Z,23.30
2018-04-27T14:40:51.541Z,23.30
2018-04-27T14:45:54.820Z,23.90
2018-04-27T14:50:58.068Z,24.20
2018-04-27T14:56:02.122Z,22.90
2018-04-27T15:01:05.430Z,22.80
2018-04-27T15:06:08.701Z,22.90
2018-04-27T15:11:11.971Z,24.00
2018-04-27T15:16:15.246Z,22.60
2018-04-27T15:21:19.318Z,21.10
2018-04-27T15:26:22.593Z,20.90
2018-04-27T15:31:26.612Z,22.90
2018-04-27T15:36:30.002Z,22.80
2018-04-27T15:41:33.253Z,21.70
2018-04-27T15:46:36.540Z,22.00
2018-04-27T15:51:40.598Z,24.80
2018-04-27T15:56:43.970Z,24.70
2018-04-27T16:01:48.930Z,22.50
2018-04-27T16:06:53.079Z,20.60
2018-04-27T16:11:56.378Z,20.40
2018-04-27T16:17:00.391Z,20.70
2018-04-27T16:22:03.671Z,21.00
2018-04-27T16:27:07.254Z,19.90
2018-04-27T16:32:10.519Z,19.30
2018-04-27T16:37:13.803Z,19.10
2018-04-27T16:42:17.076Z,19.30
2018-04-27T16:47:20.337Z,19.40
2018-04-27T16:52:23.793Z,20.60
2018-04-27T16:57:27.058Z,21.00
2018-04-27T17:02:31.148Z,21.00
2018-04-27T17:07:34.573Z,21.00
2018-04-27T17:12:37.834Z,20.90
2018-04-27T17:17:41.940Z,19.90
2018-04-27T17:22:45.309Z,19.90
2018-04-27T17:27:48.512Z,19.90
2018-04-27T17:32:51.788Z,19.80
2018-04-27T17:37:55.032Z,19.20
2018-04-27T17:42:58.300Z,18.90
2018-04-27T17:48:02.440Z,18.80
2018-04-27T17:53:05.651Z,18.70
2018-04-27T17:58:08.891Z,19.00
2018-04-27T18:03:12.173Z,19.20
2018-04-27T18:08:15.471Z,19.50
2018-04-27T18:13:18.738Z,19.20
2018-04-27T18:18:22.171Z,19.60
2018-04-27T18:23:25.480Z,19.40
2018-04-27T18:28:29.516Z,19.00
2018-04-27T18:33:32.805Z,19.00
2018-04-27T18:38:36.894Z,18.80
2018-04-27T18:43:40.176Z,18.70
2018-04-27T18:48:43.428Z,18.80
2018-04-27T18:53:46.730Z,18.90
2018-04-27T18:58:55.679Z,18.40
2018-04-27T19:04:01.205Z,18.60
2018-04-27T19:09:04.470Z,18.60
2018-04-27T19:14:08.495Z,18.60
2018-04-27T19:19:12.684Z,18.50
2018-04-27T19:24:15.999Z,18.40
2018-04-27T19:29:19.271Z,18.50
2018-04-27T19:34:22.569Z,18.50
2018-04-27T19:39:25.887Z,18.40
2018-04-27T19:44:29.919Z,17.80
2018-04-27T19:49:33.215Z,18.10
2018-04-27T19:54:36.527Z,17.90
2018-04-27T19:59:39.809Z,17.00
2018-04-27T20:04:43.859Z,16.10
2018-04-27T20:09:50.623Z,16.00
2018-04-27T20:14:53.894Z,16.40
2018-04-27T20:19:57.200Z,16.50
2018-04-27T20:25:01.494Z,16.30
2018-04-27T20:30:05.963Z,16.50
2018-04-27T20:35:10.908Z,16.30
2018-04-27T20:40:14.971Z,16.00
2018-04-27T20:45:21.125Z,15.70
2018-04-27T20:50:27.215Z,15.80
2018-04-27T20:55:31.361Z,15.60
2018-04-27T21:00:34.624Z,15.90
2018-04-27T21:05:37.879Z,15.70
2018-04-27T21:10:41.244Z,15.50
2018-04-27T21:15:44.524Z,15.70
2018-04-27T21:20:47.843Z,16.00
2018-04-27T21:25:51.919Z,16.00
2018-04-27T21:30:55.182Z,15.90
2018-04-27T21:36:00.282Z,14.90
2018-04-27T21:46:34.202Z,14.20
2018-04-27T21:51:37.467Z,14.20
2018-04-27T21:56:56.939Z,14.40
2018-04-27T22:02:00.518Z,14.30
2018-04-27T22:07:05.493Z,14.20
2018-04-27T22:12:08.764Z,14.10
2018-04-27T22:17:24.580Z,14.00
2018-04-27T22:22:27.905Z,14.30
2018-04-27T22:27:31.163Z,14.10
2018-04-27T22:32:36.900Z,14.10
2018-04-27T22:37:42.562Z,13.70
2018-04-27T22:42:50.383Z,13.60
2018-04-27T22:48:29.299Z,13.80
2018-04-27T22:53:37.028Z,13.50
2018-04-27T22:58:40.327Z,13.40
2018-04-27T23:03:44.336Z,13.60
2018-04-27T23:08:49.281Z,13.50
2018-04-27T23:14:06.341Z,13.40
2018-04-27T23:19:10.383Z,13.30
2018-04-27T23:24:13.723Z,13.20
2018-04-27T23:29:16.979Z,13.40
2018-04-27T23:34:21.147Z,13.30
2018-04-27T23:39:25.175Z,13.30
2018-04-27T23:44:28.429Z,13.30
2018-04-27T23:49:31.687Z,13.20
2018-04-27T23:54:34.940Z,13.10
2018-04-27T23:59:42.691Z,13.10
